Time;durP1;ratioP1;P1;durP2;ratioP2;P2;SDS_P1;SDS_P2;PMS_P1;PMS_P2;Temp;Humidity;BMP_temperature;BMP_pressure;BME280_temperature;BME280_humidity;BME280_pressure;Samples;Min_cycle;Max_cycle;Signal;HPM_P1;HPM_P2
2021/12/20 00:01:57;;;;;;;4.70;1.25;;;;;;;;;;5032152;28;20037;-60
2021/12/20 00:04:23;;;;;;;4.10;1.00;;;;;;;;;;5014227;28;20041;-62
2021/12/20 00:06:48;;;;;;;4.75;1.10;;;;;;;;;;5032103;28;20021;-65
2021/12/20 00:09:15;;;;;;;2.95;1.15;;;;;;;;;;5032090;28;20033;-62
2021/12/20 00:11:40;;;;;;;3.28;1.20;;;;;;;;;;5032179;28;20132;-63
2021/12/20 00:14:06;;;;;;;2.75;1.00;;;;;;;;;;5032062;28;20464;-65
2021/12/20 00:16:32;;;;;;;4.38;1.27;;;;;;;;;;5031808;28;20033;-64
2021/12/20 00:18:57;;;;;;;3.67;1.45;;;;;;;;;;5031974;28;20025;-66
2021/12/20 00:21:23;;;;;;;3.08;1.35;;;;;;;;;;5032303;28;20073;-65
2021/12/20 00:23:50;;;;;;;4.75;1.55;;;;;;;;;;5031937;28;20029;-59
2021/12/20 00:26:15;;;;;;;3.35;1.52;;;;;;;;;;5032010;28;20021;-59
2021/12/20 00:28:41;;;;;;;3.72;1.20;;;;;;;;;;5031746;28;20044;-59
2021/12/20 00:31:07;;;;;;;3.65;1.30;;;;;;;;;;5031614;28;20038;-60
2021/12/20 00:33:35;;;;;;;5.32;1.10;;;;;;;;;;5031790;28;20128;-60
2021/12/20 00:36:03;;;;;;;3.45;1.50;;;;;;;;;;5031968;28;20018;-62
2021/12/20 00:41:13;;;;;;;3.67;1.00;;;;;;;;;;5034590;28;20101;-60
2021/12/20 00:43:39;;;;;;;2.47;1.00;;;;;;;;;;5036200;28;20484;-61
2021/12/20 00:46:05;;;;;;;3.03;1.05;;;;;;;;;;5046240;28;20037;-62
2021/12/20 00:48:30;;;;;;;5.07;1.60;;;;;;;;;;5035321;28;20072;-60
2021/12/20 00:50:56;;;;;;;4.32;1.27;;;;;;;;;;5035370;28;20381;-61
2021/12/20 00:53:22;;;;;;;1.95;0.90;;;;;;;;;;5034980;28;20033;-60
2021/12/20 00:55:48;;;;;;;2.58;0.95;;;;;;;;;;5017382;28;20028;-61
2021/12/20 00:58:14;;;;;;;1.85;0.93;;;;;;;;;;5035012;28;20042;-59
2021/12/20 01:00:43;;;;;;;2.72;1.00;;;;;;;;;;5035266;28;20072;-62
2021/12/20 01:03:10;;;;;;;4.27;0.90;;;;;;;;;;5017193;28;20052;-60
2021/12/20 01:05:38;;;;;;;1.60;0.85;;;;;;;;;;5035090;28;20353;-60
2021/12/20 01:08:06;;;;;;;2.70;0.85;;;;;;;;;;5034921;28;20472;-60
2021/12/20 01:10:34;;;;;;;2.50;0.90;;;;;;;;;;5034829;28;20021;-59
2021/12/20 01:13:01;;;;;;;1.73;1.08;;;;;;;;;;5034802;28;20025;-61
2021/12/20 01:15:48;;;;;;;5.25;1.60;;;;;;;;;;5034739;28;20026;-62
2021/12/20 01:18:14;;;;;;;4.03;1.00;;;;;;;;;;5034941;28;20033;-62
2021/12/20 01:20:43;;;;;;;2.40;1.00;;;;;;;;;;5034944;28;20551;-59
2021/12/20 01:23:11;;;;;;;2.78;0.80;;;;;;;;;;5034562;28;20033;-60
2021/12/20 01:25:37;;;;;;;1.05;0.80;;;;;;;;;;5034739;28;20025;-64
2021/12/20 01:28:04;;;;;;;2.25;1.02;;;;;;;;;;5033927;28;20017;-60
2021/12/20 01:30:29;;;;;;;5.05;1.10;;;;;;;;;;5034502;28;20041;-62
2021/12/20 01:32:56;;;;;;;3.38;1.05;;;;;;;;;;5034413;28;20483;-60
2021/12/20 01:35:24;;;;;;;1.55;0.93;;;;;;;;;;5034331;28;20036;-60
2021/12/20 01:37:50;;;;;;;1.73;1.10;;;;;;;;;;5034345;28;20049;-61
2021/12/20 01:40:19;;;;;;;2.47;1.45;;;;;;;;;;5034260;28;20136;-60
2021/12/20 01:42:45;;;;;;;3.72;1.02;;;;;;;;;;5033985;28;20041;-60
2021/12/20 01:45:18;;;;;;;2.75;0.90;;;;;;;;;;5035572;28;20387;-60
2021/12/20 01:47:48;;;;;;;3.13;0.90;;;;;;;;;;5034234;28;20035;-60
2021/12/20 01:50:24;;;;;;;2.78;1.33;;;;;;;;;;5034172;28;20025;-59
2021/12/20 01:52:50;;;;;;;6.15;1.75;;;;;;;;;;5034032;28;20464;-61
2021/12/20 01:55:19;;;;;;;3.80;1.40;;;;;;;;;;5034123;28;20052;-60
2021/12/20 01:57:46;;;;;;;3.65;1.30;;;;;;;;;;5033870;28;20049;-62
2021/12/20 02:00:16;;;;;;;2.55;1.05;;;;;;;;;;5033846;28;20025;-62
2021/12/20 02:02:43;;;;;;;1.90;0.90;;;;;;;;;;5034211;28;20353;-60
2021/12/20 02:05:18;;;;;;;2.67;0.80;;;;;;;;;;5033957;28;20029;-61
2021/12/20 02:07:57;;;;;;;2.65;1.15;;;;;;;;;;5033906;28;20030;-61
2021/12/20 02:10:22;;;;;;;2.65;1.42;;;;;;;;;;5033736;28;20086;-59
2021/12/20 02:12:48;;;;;;;5.38;1.73;;;;;;;;;;5033603;28;20100;-59
2021/12/20 02:15:14;;;;;;;7.55;1.27;;;;;;;;;;5033690;28;20057;-61
2021/12/20 02:17:40;;;;;;;7.53;1.60;;;;;;;;;;5033515;28;20590;-62
2021/12/20 02:20:06;;;;;;;5.28;1.25;;;;;;;;;;5033656;28;20021;-59
2021/12/20 02:22:32;;;;;;;5.57;1.45;;;;;;;;;;5033471;28;20037;-59
2021/12/20 02:24:57;;;;;;;5.18;1.05;;;;;;;;;;5033578;28;20022;-59
2021/12/20 02:27:23;;;;;;;3.65;1.27;;;;;;;;;;5033306;28;20502;-65
2021/12/20 02:38:21;;;;;;;4.03;1.42;;;;;;;;;;4972552;28;20138;-65
2021/12/20 02:40:47;;;;;;;5.70;1.48;;;;;;;;;;4971994;28;20121;-65
2021/12/20 02:43:17;;;;;;;10.68;1.70;;;;;;;;;;4973165;28;20098;-67
2021/12/20 02:45:43;;;;;;;5.22;1.60;;;;;;;;;;4978108;28;20126;-61
2021/12/20 02:48:09;;;;;;;4.45;1.17;;;;;;;;;;4972080;28;20031;-65
2021/12/20 02:50:35;;;;;;;9.07;2.15;;;;;;;;;;4972233;28;20061;-65
2021/12/20 02:53:00;;;;;;;5.57;1.67;;;;;;;;;;4971971;28;20077;-65
2021/12/20 02:55:26;;;;;;;10.02;1.45;;;;;;;;;;4952436;29;20050;-67
2021/12/20 02:57:51;;;;;;;5.78;1.10;;;;;;;;;;4968957;28;20019;-66
2021/12/20 03:00:17;;;;;;;5.43;1.08;;;;;;;;;;4971940;28;20034;-66
2021/12/20 03:02:43;;;;;;;1.95;1.10;;;;;;;;;;4971515;28;20042;-65
2021/12/20 03:05:11;;;;;;;1.95;1.15;;;;;;;;;;4972079;28;20527;-66
2021/12/20 03:07:46;;;;;;;4.55;1.08;;;;;;;;;;4971831;28;20097;-65
2021/12/20 03:10:12;;;;;;;5.30;1.20;;;;;;;;;;5013693;28;20040;-65
2021/12/20 03:12:38;;;;;;;4.28;1.58;;;;;;;;;;5032622;28;20032;-66
2021/12/20 03:15:14;;;;;;;5.72;1.73;;;;;;;;;;5032730;28;20100;-59
2021/12/20 03:17:39;;;;;;;12.63;6.65;;;;;;;;;;5032594;28;20052;-63
2021/12/20 03:20:06;;;;;;;18.95;11.95;;;;;;;;;;5032598;28;20575;-61
2021/12/20 03:22:32;;;;;;;8.73;3.00;;;;;;;;;;5032638;28;20057;-67
2021/12/20 03:24:58;;;;;;;6.93;2.22;;;;;;;;;;5032470;28;20052;-67
2021/12/20 03:27:23;;;;;;;10.88;4.15;;;;;;;;;;5032516;28;20095;-65
2021/12/20 03:29:49;;;;;;;5.07;2.25;;;;;;;;;;5032364;28;20075;-67
2021/12/20 03:32:14;;;;;;;8.07;3.60;;;;;;;;;;5032294;28;20029;-66
2021/12/20 03:34:40;;;;;;;7.07;1.95;;;;;;;;;;5032504;28;20477;-66
2021/12/20 03:37:06;;;;;;;2.53;0.90;;;;;;;;;;5032698;28;20040;-66
2021/12/20 03:39:31;;;;;;;3.60;1.40;;;;;;;;;;5032119;28;20049;-65
2021/12/20 03:41:57;;;;;;;6.70;3.72;;;;;;;;;;5032335;28;20476;-63
2021/12/20 03:44:23;;;;;;;3.83;2.03;;;;;;;;;;5039233;28;20033;-66
2021/12/20 03:46:49;;;;;;;5.28;3.10;;;;;;;;;;5035718;28;20431;-64
2021/12/20 03:49:14;;;;;;;4.72;1.73;;;;;;;;;;5032311;28;20091;-63
2021/12/20 03:51:40;;;;;;;9.27;3.63;;;;;;;;;;5032135;28;20143;-63
2021/12/20 03:54:06;;;;;;;5.15;2.45;;;;;;;;;;5031987;28;20034;-65
2021/12/20 03:56:31;;;;;;;4.75;1.63;;;;;;;;;;5032315;28;20392;-64
2021/12/20 03:58:57;;;;;;;7.20;2.83;;;;;;;;;;5032234;28;20071;-66
2021/12/20 04:01:25;;;;;;;6.40;2.28;;;;;;;;;;5032174;28;20038;-64
2021/12/20 04:03:50;;;;;;;7.55;2.35;;;;;;;;;;5032276;28;20066;-67
2021/12/20 04:06:16;;;;;;;5.13;1.65;;;;;;;;;;5031945;28;20369;-60
2021/12/20 04:08:43;;;;;;;8.40;2.00;;;;;;;;;;5031947;28;20108;-62
2021/12/20 04:11:09;;;;;;;5.25;1.73;;;;;;;;;;5031991;28;20087;-65
2021/12/20 04:13:35;;;;;;;4.97;1.98;;;;;;;;;;5032044;28;20030;-66
2021/12/20 04:16:01;;;;;;;3.85;1.42;;;;;;;;;;5034332;28;20084;-65
2021/12/20 04:18:27;;;;;;;5.90;1.67;;;;;;;;;;5036116;28;20025;-65
2021/12/20 04:20:53;;;;;;;3.88;1.35;;;;;;;;;;5035722;28;20029;-65
2021/12/20 04:23:18;;;;;;;9.57;3.80;;;;;;;;;;5035636;28;20026;-65
2021/12/20 04:25:46;;;;;;;4.60;1.35;;;;;;;;;;5035609;28;20030;-65
2021/12/20 04:28:11;;;;;;;2.55;1.10;;;;;;;;;;5035671;28;20028;-67
2021/12/20 04:30:37;;;;;;;2.25;1.00;;;;;;;;;;5035596;28;20120;-64
2021/12/20 04:33:03;;;;;;;4.53;1.17;;;;;;;;;;5035727;28;20469;-65
2021/12/20 04:35:29;;;;;;;5.25;1.45;;;;;;;;;;5035438;28;20025;-67
2021/12/20 04:37:57;;;;;;;2.75;1.10;;;;;;;;;;5035014;28;20124;-66
2021/12/20 04:40:23;;;;;;;3.67;1.77;;;;;;;;;;5035266;28;20087;-66
2021/12/20 04:42:57;;;;;;;5.72;1.17;;;;;;;;;;5035593;28;20503;-64
2021/12/20 04:45:25;;;;;;;4.90;2.05;;;;;;;;;;5039712;28;20084;-65
2021/12/20 04:47:50;;;;;;;3.33;1.48;;;;;;;;;;5035431;28;20025;-66
2021/12/20 04:50:17;;;;;;;6.20;1.33;;;;;;;;;;5035104;28;20036;-67
2021/12/20 04:52:42;;;;;;;2.50;1.23;;;;;;;;;;5035041;28;20504;-65
2021/12/20 04:55:10;;;;;;;7.35;1.30;;;;;;;;;;5035078;28;20040;-66
2021/12/20 04:57:36;;;;;;;4.40;1.10;;;;;;;;;;5035225;28;20017;-66
2021/12/20 05:00:04;;;;;;;3.40;1.40;;;;;;;;;;5035115;28;20448;-67
2021/12/20 05:02:30;;;;;;;5.93;1.60;;;;;;;;;;5035177;28;20053;-66
2021/12/20 05:04:55;;;;;;;4.78;1.40;;;;;;;;;;5035009;28;20080;-66
2021/12/20 05:07:22;;;;;;;2.95;1.45;;;;;;;;;;5034892;28;20048;-66
2021/12/20 05:09:48;;;;;;;7.18;2.03;;;;;;;;;;5034565;28;20104;-66
2021/12/20 05:12:14;;;;;;;5.85;1.27;;;;;;;;;;5034685;28;20125;-68
2021/12/20 05:14:42;;;;;;;2.42;1.08;;;;;;;;;;5034850;28;20044;-67
2021/12/20 05:17:12;;;;;;;3.17;1.25;;;;;;;;;;5034984;28;20104;-66
2021/12/20 05:19:42;;;;;;;5.60;1.67;;;;;;;;;;5034712;28;20045;-66
2021/12/20 05:22:11;;;;;;;4.25;1.52;;;;;;;;;;5034165;28;20033;-66
2021/12/20 05:24:37;;;;;;;6.05;1.80;;;;;;;;;;5034644;28;20025;-67
2021/12/20 05:27:03;;;;;;;3.65;1.52;;;;;;;;;;5034302;28;20129;-66
2021/12/20 05:29:29;;;;;;;7.53;3.35;;;;;;;;;;5034225;28;20030;-67
2021/12/20 05:31:55;;;;;;;6.32;1.92;;;;;;;;;;5034304;28;20029;-66
2021/12/20 05:34:20;;;;;;;7.32;2.53;;;;;;;;;;5034529;28;20017;-66
2021/12/20 05:36:46;;;;;;;5.57;1.98;;;;;;;;;;5034317;28;20037;-66
2021/12/20 05:39:12;;;;;;;11.38;2.83;;;;;;;;;;5034008;28;20041;-64
2021/12/20 05:41:38;;;;;;;14.20;2.40;;;;;;;;;;5034132;28;20030;-66
2021/12/20 05:44:04;;;;;;;5.88;2.08;;;;;;;;;;5035584;28;20365;-64
2021/12/20 05:46:29;;;;;;;8.45;2.40;;;;;;;;;;5034295;28;20029;-67
2021/12/20 05:48:55;;;;;;;10.82;2.97;;;;;;;;;;5033984;28;20021;-66
2021/12/20 05:51:21;;;;;;;31.17;3.00;;;;;;;;;;5034219;28;20146;-66
2021/12/20 05:53:46;;;;;;;12.68;3.00;;;;;;;;;;5033915;28;20041;-66
2021/12/20 05:56:12;;;;;;;12.30;3.65;;;;;;;;;;5034142;28;20021;-66
2021/12/20 05:58:37;;;;;;;10.43;3.67;;;;;;;;;;5033965;28;20475;-66
2021/12/20 06:01:03;;;;;;;12.27;3.45;;;;;;;;;;5034023;28;20021;-67
2021/12/20 06:03:28;;;;;;;15.13;2.72;;;;;;;;;;5033523;28;20033;-67
2021/12/20 06:05:54;;;;;;;13.25;2.97;;;;;;;;;;5034101;28;20029;-67
2021/12/20 06:08:19;;;;;;;7.82;2.22;;;;;;;;;;5033721;28;20032;-66
2021/12/20 06:10:45;;;;;;;6.03;1.90;;;;;;;;;;5033940;28;20025;-65
2021/12/20 06:13:11;;;;;;;6.78;1.80;;;;;;;;;;5033624;28;20028;-66
2021/12/20 06:15:36;;;;;;;4.47;2.10;;;;;;;;;;5033564;28;20017;-61
2021/12/20 06:18:02;;;;;;;6.88;1.50;;;;;;;;;;5033407;28;20117;-66
2021/12/20 06:20:27;;;;;;;4.82;1.50;;;;;;;;;;5033725;28;20460;-64
2021/12/20 06:22:53;;;;;;;3.58;1.67;;;;;;;;;;5033271;28;20025;-61
2021/12/20 06:25:19;;;;;;;6.53;1.95;;;;;;;;;;5033670;28;20029;-66
2021/12/20 06:27:47;;;;;;;4.00;1.42;;;;;;;;;;5033069;28;20100;-66
2021/12/20 06:30:13;;;;;;;6.05;1.63;;;;;;;;;;5032996;28;20586;-67
2021/12/20 06:32:41;;;;;;;9.48;1.98;;;;;;;;;;5032773;28;20025;-63
2021/12/20 06:35:07;;;;;;;9.23;2.78;;;;;;;;;;5033191;28;20077;-63
2021/12/20 06:37:33;;;;;;;9.43;3.70;;;;;;;;;;5032596;28;20179;-64
2021/12/20 06:39:59;;;;;;;9.95;2.40;;;;;;;;;;5033298;28;20072;-64
2021/12/20 06:42:25;;;;;;;11.88;3.50;;;;;;;;;;5033087;28;20025;-65
2021/12/20 06:44:51;;;;;;;10.48;4.55;;;;;;;;;;5036209;28;20029;-64
2021/12/20 06:47:18;;;;;;;16.70;9.02;;;;;;;;;;5032847;28;20036;-64
2021/12/20 06:49:44;;;;;;;21.02;7.25;;;;;;;;;;5033053;28;20025;-66
2021/12/20 06:52:09;;;;;;;12.10;5.47;;;;;;;;;;5032811;28;20026;-65
2021/12/20 06:54:35;;;;;;;10.18;4.78;;;;;;;;;;5032611;28;20133;-66
2021/12/20 06:57:02;;;;;;;11.23;3.38;;;;;;;;;;5032931;28;20118;-66
2021/12/20 06:59:28;;;;;;;14.73;4.10;;;;;;;;;;5032939;28;20036;-66
2021/12/20 07:01:53;;;;;;;12.88;5.20;;;;;;;;;;5032657;28;20029;-66
2021/12/20 07:04:20;;;;;;;12.57;4.05;;;;;;;;;;5032948;28;20047;-64
2021/12/20 07:06:45;;;;;;;7.95;3.22;;;;;;;;;;5032370;28;20033;-63
2021/12/20 07:09:11;;;;;;;6.90;3.60;;;;;;;;;;5032955;28;20071;-63
2021/12/20 07:11:37;;;;;;;6.60;2.83;;;;;;;;;;5032507;28;20037;-63
2021/12/20 07:14:03;;;;;;;9.20;3.28;;;;;;;;;;5032737;28;20033;-66
2021/12/20 07:16:32;;;;;;;12.73;4.00;;;;;;;;;;5032219;28;20112;-64
2021/12/20 07:18:58;;;;;;;9.38;2.85;;;;;;;;;;5032622;28;20040;-66
2021/12/20 07:21:24;;;;;;;10.13;4.03;;;;;;;;;;5032650;28;20033;-65
2021/12/20 07:23:49;;;;;;;9.85;4.35;;;;;;;;;;5032489;28;20388;-65
2021/12/20 07:26:15;;;;;;;12.45;3.97;;;;;;;;;;5032407;28;20030;-65
2021/12/20 07:28:42;;;;;;;12.75;3.85;;;;;;;;;;5032388;28;20495;-64
2021/12/20 07:31:10;;;;;;;13.45;4.35;;;;;;;;;;5032101;28;20033;-66
2021/12/20 07:33:35;;;;;;;10.13;4.28;;;;;;;;;;5032359;28;20158;-63
2021/12/20 07:36:01;;;;;;;10.50;2.78;;;;;;;;;;5032366;28;20475;-63
2021/12/20 07:38:26;;;;;;;8.18;2.65;;;;;;;;;;5032189;28;20120;-59
2021/12/20 07:40:52;;;;;;;9.18;3.10;;;;;;;;;;5032438;28;20031;-60
2021/12/20 07:43:19;;;;;;;10.82;3.42;;;;;;;;;;5032103;28;20029;-59
2021/12/20 07:45:49;;;;;;;13.57;3.92;;;;;;;;;;5036972;28;20029;-58
2021/12/20 07:48:19;;;;;;;20.83;6.25;;;;;;;;;;5032215;28;20021;-65
2021/12/20 07:50:46;;;;;;;23.38;7.18;;;;;;;;;;5035832;28;20045;-65
2021/12/20 07:53:12;;;;;;;8.70;3.38;;;;;;;;;;5036489;28;20104;-60
2021/12/20 07:55:38;;;;;;;10.45;4.60;;;;;;;;;;5036163;28;20508;-67
2021/12/20 07:58:04;;;;;;;11.85;5.18;;;;;;;;;;5036213;28;20033;-62
2021/12/20 08:00:30;;;;;;;9.13;3.63;;;;;;;;;;5036086;28;20396;-64
2021/12/20 08:02:57;;;;;;;11.52;3.50;;;;;;;;;;5036328;28;20025;-65
2021/12/20 08:05:24;;;;;;;18.92;5.75;;;;;;;;;;5036133;28;20421;-64
2021/12/20 08:07:50;;;;;;;15.10;5.05;;;;;;;;;;5036249;28;20104;-65
2021/12/20 08:10:24;;;;;;;12.07;4.28;;;;;;;;;;5017964;28;20029;-65
2021/12/20 08:12:53;;;;;;;6.68;3.58;;;;;;;;;;5035685;28;20028;-65
2021/12/20 08:15:21;;;;;;;10.50;3.47;;;;;;;;;;5035560;28;20036;-65
2021/12/20 08:17:47;;;;;;;10.88;6.35;;;;;;;;;;5035861;28;20429;-63
2021/12/20 08:20:13;;;;;;;30.40;9.45;;;;;;;;;;5035673;28;20488;-64
2021/12/20 08:22:40;;;;;;;18.23;5.45;;;;;;;;;;5035756;28;20029;-65
2021/12/20 08:25:06;;;;;;;14.30;5.38;;;;;;;;;;5035700;28;20029;-66
2021/12/20 08:27:32;;;;;;;20.55;7.22;;;;;;;;;;5035722;28;20116;-64
2021/12/20 08:29:58;;;;;;;23.25;7.20;;;;;;;;;;5035039;28;20100;-65
2021/12/20 08:32:24;;;;;;;14.15;5.35;;;;;;;;;;5035836;28;20504;-65
2021/12/20 08:34:49;;;;;;;13.18;4.90;;;;;;;;;;5035613;28;20476;-66
2021/12/20 08:37:15;;;;;;;11.38;4.00;;;;;;;;;;5035502;28;20037;-67
2021/12/20 08:39:40;;;;;;;6.85;2.47;;;;;;;;;;5035430;28;20029;-67
2021/12/20 08:42:07;;;;;;;4.90;2.40;;;;;;;;;;5035424;28;20431;-67
2021/12/20 08:44:33;;;;;;;5.30;2.35;;;;;;;;;;5042168;28;20025;-67
2021/12/20 08:46:59;;;;;;;6.05;2.53;;;;;;;;;;5035278;28;20022;-65
2021/12/20 08:49:25;;;;;;;6.25;2.42;;;;;;;;;;5035220;28;20095;-66
2021/12/20 08:51:52;;;;;;;10.20;3.10;;;;;;;;;;5034856;28;20029;-63
2021/12/20 08:54:18;;;;;;;11.85;2.80;;;;;;;;;;5034933;28;20031;-66
2021/12/20 08:56:44;;;;;;;10.75;3.33;;;;;;;;;;5035262;28;20100;-67
2021/12/20 08:59:09;;;;;;;12.65;3.40;;;;;;;;;;5034840;28;20021;-61
2021/12/20 09:01:35;;;;;;;11.07;4.30;;;;;;;;;;5034029;28;20040;-63
2021/12/20 09:04:03;;;;;;;10.18;4.57;;;;;;;;;;5034793;28;20022;-64
2021/12/20 09:06:30;;;;;;;10.63;4.18;;;;;;;;;;5016938;28;20034;-66
2021/12/20 09:08:56;;;;;;;10.55;3.70;;;;;;;;;;5034652;28;20061;-66
2021/12/20 09:11:22;;;;;;;10.30;3.63;;;;;;;;;;5034752;28;20061;-65
2021/12/20 09:13:48;;;;;;;17.27;4.68;;;;;;;;;;5034600;28;20022;-66
2021/12/20 09:16:14;;;;;;;10.82;4.15;;;;;;;;;;5034837;28;20108;-65
2021/12/20 09:18:40;;;;;;;11.75;4.65;;;;;;;;;;5034719;28;20132;-59
2021/12/20 09:21:09;;;;;;;10.13;3.22;;;;;;;;;;5034828;28;20369;-60
2021/12/20 09:23:35;;;;;;;8.48;4.30;;;;;;;;;;5034599;28;20056;-63
2021/12/20 09:26:00;;;;;;;8.10;3.30;;;;;;;;;;5034600;28;20079;-65
2021/12/20 09:28:26;;;;;;;14.02;3.97;;;;;;;;;;5034094;28;20022;-60
2021/12/20 09:30:51;;;;;;;12.90;5.55;;;;;;;;;;5016796;28;20358;-62
2021/12/20 09:33:17;;;;;;;10.55;3.25;;;;;;;;;;5034539;28;20431;-62
2021/12/20 09:35:43;;;;;;;13.07;4.93;;;;;;;;;;5034627;28;20353;-59
2021/12/20 09:38:11;;;;;;;10.35;4.07;;;;;;;;;;5034272;28;20045;-60
2021/12/20 09:40:40;;;;;;;11.13;3.60;;;;;;;;;;5034487;28;20053;-60
2021/12/20 09:43:13;;;;;;;7.30;3.75;;;;;;;;;;5034074;28;20376;-65
2021/12/20 09:45:44;;;;;;;7.40;3.72;;;;;;;;;;5041444;28;20033;-65
2021/12/20 09:48:10;;;;;;;7.50;2.80;;;;;;;;;;5034160;28;20022;-62
2021/12/20 09:50:35;;;;;;;10.27;2.88;;;;;;;;;;5034227;28;20075;-60
2021/12/20 09:53:07;;;;;;;6.47;2.58;;;;;;;;;;5034153;28;20021;-61
2021/12/20 09:55:33;;;;;;;5.38;2.60;;;;;;;;;;5033835;28;20072;-62
2021/12/20 09:58:02;;;;;;;10.52;3.05;;;;;;;;;;5016219;28;20017;-63
2021/12/20 10:00:28;;;;;;;7.85;2.80;;;;;;;;;;5034192;28;20443;-64
2021/12/20 10:02:53;;;;;;;12.20;3.70;;;;;;;;;;5033811;28;20033;-65
2021/12/20 10:05:19;;;;;;;11.15;3.83;;;;;;;;;;5033872;28;20037;-62
2021/12/20 10:07:50;;;;;;;8.25;3.22;;;;;;;;;;5033904;28;20017;-64
2021/12/20 10:10:34;;;;;;;6.05;2.67;;;;;;;;;;5033565;28;20025;-60
2021/12/20 10:12:59;;;;;;;7.63;3.67;;;;;;;;;;5032662;28;20021;-61
2021/12/20 10:15:32;;;;;;;8.02;2.72;;;;;;;;;;5033940;28;20022;-60
2021/12/20 10:17:59;;;;;;;7.50;2.03;;;;;;;;;;5033609;28;20025;-60
2021/12/20 10:20:26;;;;;;;7.18;3.35;;;;;;;;;;5033442;28;20456;-60
2021/12/20 10:22:53;;;;;;;6.30;3.08;;;;;;;;;;5020420;28;20031;-61
2021/12/20 10:25:30;;;;;;;6.85;2.17;;;;;;;;;;5033215;28;20499;-61
2021/12/20 10:28:14;;;;;;;5.53;1.30;;;;;;;;;;5031325;28;20472;-64
2021/12/20 10:30:45;;;;;;;5.95;2.35;;;;;;;;;;5030094;28;20033;-65
2021/12/20 10:33:22;;;;;;;9.20;2.63;;;;;;;;;;5033623;28;20025;-61
2021/12/20 10:35:55;;;;;;;8.38;3.88;;;;;;;;;;5033478;28;20028;-59
2021/12/20 10:38:28;;;;;;;15.20;9.50;;;;;;;;;;5033208;28;20041;-60
2021/12/20 10:40:58;;;;;;;13.73;5.00;;;;;;;;;;5020773;28;20079;-62
2021/12/20 10:43:40;;;;;;;10.57;4.35;;;;;;;;;;5032918;28;20039;-62
2021/12/20 10:46:13;;;;;;;9.40;3.17;;;;;;;;;;5023384;28;20029;-61
2021/12/20 10:48:39;;;;;;;7.75;3.25;;;;;;;;;;5031689;28;20029;-62
2021/12/20 10:51:05;;;;;;;8.10;3.03;;;;;;;;;;5032899;28;20087;-61
2021/12/20 10:53:30;;;;;;;7.07;2.63;;;;;;;;;;5032324;28;20018;-60
2021/12/20 10:56:03;;;;;;;8.93;3.67;;;;;;;;;;5033053;28;20036;-62
2021/12/20 10:58:29;;;;;;;6.03;2.65;;;;;;;;;;5032875;28;20029;-64
2021/12/20 11:01:22;;;;;;;8.88;2.47;;;;;;;;;;5032977;28;20544;-65
2021/12/20 11:03:57;;;;;;;13.63;3.47;;;;;;;;;;5033018;28;20100;-65
2021/12/20 11:09:08;;;;;;;3.30;1.60;;;;;;;;;;5032601;28;20025;-64
2021/12/20 11:11:36;;;;;;;2.80;1.30;;;;;;;;;;5014715;28;20511;-60
2021/12/20 11:14:04;;;;;;;3.25;1.55;;;;;;;;;;5032938;28;20377;-60
2021/12/20 11:16:32;;;;;;;5.68;2.55;;;;;;;;;;5032600;28;20458;-59
2021/12/20 11:19:38;;;;;;;4.53;1.63;;;;;;;;;;5032519;28;20036;-59
2021/12/20 11:22:08;;;;;;;6.45;1.63;;;;;;;;;;5030531;28;20045;-60
2021/12/20 11:24:54;;;;;;;1.95;1.30;;;;;;;;;;5032082;28;20100;-59
2021/12/20 11:27:23;;;;;;;4.22;1.67;;;;;;;;;;5032531;28;20105;-63
2021/12/20 11:29:50;;;;;;;3.53;1.98;;;;;;;;;;5032347;28;20421;-64
2021/12/20 11:32:17;;;;;;;3.80;1.90;;;;;;;;;;5032281;28;20423;-60
2021/12/20 11:34:44;;;;;;;3.63;1.92;;;;;;;;;;5032446;28;20096;-59
2021/12/20 11:37:15;;;;;;;4.47;2.55;;;;;;;;;;5032019;28;20071;-62
2021/12/20 11:39:41;;;;;;;3.60;1.50;;;;;;;;;;5032398;28;20092;-60
2021/12/20 11:42:12;;;;;;;6.63;2.92;;;;;;;;;;5032395;28;20499;-60
2021/12/20 11:44:37;;;;;;;;;;;;;;;;;;5041672;28;20389;-62
2021/12/20 11:47:31;;;;;;;6.47;2.40;;;;;;;;;;5034563;28;19913;-64
2021/12/20 11:50:03;;;;;;;4.28;1.27;;;;;;;;;;5032349;28;20033;-61
2021/12/20 11:52:34;;;;;;;3.08;1.40;;;;;;;;;;5019483;28;20033;-61
2021/12/20 11:54:59;;;;;;;;;;;;;;;;;;5019533;28;20026;-60
2021/12/20 11:57:28;;;;;;;6.90;1.50;;;;;;;;;;5032180;28;19917;-59
2021/12/20 11:59:56;;;;;;;2.85;1.00;;;;;;;;;;5032202;28;20030;-59
2021/12/20 12:02:21;;;;;;;3.95;1.58;;;;;;;;;;5032214;28;20435;-62
2021/12/20 12:05:04;;;;;;;3.53;1.15;;;;;;;;;;5032125;28;20033;-63
2021/12/20 12:07:35;;;;;;;3.88;1.30;;;;;;;;;;5032177;28;20070;-61
2021/12/20 12:10:03;;;;;;;3.65;1.20;;;;;;;;;;5032154;28;20369;-61
2021/12/20 12:12:30;;;;;;;4.60;1.50;;;;;;;;;;5032069;28;20032;-59
2021/12/20 12:15:03;;;;;;;4.28;1.45;;;;;;;;;;5031963;28;20013;-64
2021/12/20 12:17:48;;;;;;;5.30;1.20;;;;;;;;;;5032348;28;20033;-61
2021/12/20 12:20:14;;;;;;;4.82;1.60;;;;;;;;;;5032074;28;20022;-61
2021/12/20 12:22:44;;;;;;;4.55;1.60;;;;;;;;;;5031638;28;20491;-60
2021/12/20 12:25:11;;;;;;;3.00;1.42;;;;;;;;;;5032102;28;20061;-59
2021/12/20 12:27:41;;;;;;;2.20;0.90;;;;;;;;;;5031603;28;20044;-61
2021/12/20 12:30:12;;;;;;;2.90;1.30;;;;;;;;;;5032000;28;20074;-60
2021/12/20 12:32:58;;;;;;;4.05;1.40;;;;;;;;;;5028346;28;20030;-63
2021/12/20 12:35:39;;;;;;;4.07;1.63;;;;;;;;;;5014008;28;20049;-61
2021/12/20 12:38:49;;;;;;;3.40;1.58;;;;;;;;;;5023646;28;20396;-63
2021/12/20 12:41:21;;;;;;;1.63;1.10;;;;;;;;;;4994181;28;20113;-60
2021/12/20 12:44:08;;;;;;;5.28;1.95;;;;;;;;;;4993687;28;20027;-60
2021/12/20 12:46:54;;;;;;;6.60;2.13;;;;;;;;;;4994047;28;20038;-61
2021/12/20 12:49:22;;;;;;;3.15;1.42;;;;;;;;;;4993509;28;20054;-65
2021/12/20 12:51:51;;;;;;;6.72;2.72;;;;;;;;;;4993619;28;20042;-61
2021/12/20 12:54:43;;;;;;;4.25;1.90;;;;;;;;;;4993470;28;20702;-60
2021/12/20 12:57:11;;;;;;;4.07;1.80;;;;;;;;;;4916835;29;20484;-60
2021/12/20 12:59:36;;;;;;;7.18;1.60;;;;;;;;;;4916586;29;20040;-62
2021/12/20 13:02:15;;;;;;;3.72;1.35;;;;;;;;;;4916680;29;20059;-61
2021/12/20 13:04:54;;;;;;;7.00;1.58;;;;;;;;;;4916376;29;20087;-61
2021/12/20 13:07:22;;;;;;;4.32;1.60;;;;;;;;;;4916736;29;20503;-62
2021/12/20 13:09:50;;;;;;;5.15;2.00;;;;;;;;;;4916371;29;20478;-61
2021/12/20 13:12:33;;;;;;;3.92;1.60;;;;;;;;;;4914639;29;20139;-62
2021/12/20 13:15:18;;;;;;;4.55;1.50;;;;;;;;;;4915233;29;20404;-59
2021/12/20 13:17:48;;;;;;;4.05;1.50;;;;;;;;;;4925270;29;20130;-64
2021/12/20 13:20:22;;;;;;;;;;;;;;;;;;4954495;28;20031;-60
2021/12/20 13:23:03;;;;;;;4.13;1.85;;;;;;;;;;4940787;29;19918;-65
2021/12/20 13:25:40;;;;;;;3.33;1.20;;;;;;;;;;4935275;29;20135;-59
2021/12/20 13:28:26;;;;;;;2.92;1.50;;;;;;;;;;4938285;29;20394;-59
2021/12/20 13:30:59;;;;;;;3.70;1.70;;;;;;;;;;4953511;29;20023;-61
2021/12/20 13:33:28;;;;;;;4.13;1.90;;;;;;;;;;4951174;28;20092;-59
2021/12/20 13:35:55;;;;;;;7.03;2.40;;;;;;;;;;5011882;28;20018;-64
2021/12/20 13:38:21;;;;;;;6.05;2.50;;;;;;;;;;5034262;28;20083;-67
2021/12/20 13:40:49;;;;;;;8.63;2.42;;;;;;;;;;5034179;28;20077;-63
2021/12/20 13:43:20;;;;;;;3.47;1.40;;;;;;;;;;5034326;28;20036;-60
2021/12/20 13:46:09;;;;;;;4.03;1.65;;;;;;;;;;5035823;28;20025;-63
2021/12/20 13:48:35;;;;;;;9.20;2.50;;;;;;;;;;5033832;28;20100;-65
2021/12/20 13:51:00;;;;;;;7.47;1.80;;;;;;;;;;5021169;28;20108;-60
2021/12/20 13:53:33;;;;;;;7.93;3.45;;;;;;;;;;5034172;28;20053;-63
2021/12/20 13:56:01;;;;;;;3.55;1.60;;;;;;;;;;5015967;28;20025;-68
2021/12/20 13:58:27;;;;;;;6.40;2.60;;;;;;;;;;5034147;28;20021;-60
2021/12/20 14:00:54;;;;;;;8.35;5.35;;;;;;;;;;5034044;28;20026;-62
2021/12/20 14:03:20;;;;;;;68.43;44.65;;;;;;;;;;5033487;28;20385;-63
2021/12/20 14:05:47;;;;;;;4.38;2.10;;;;;;;;;;5033843;28;20018;-63
2021/12/20 14:08:22;;;;;;;3.08;1.50;;;;;;;;;;5033788;28;20039;-62
2021/12/20 14:10:52;;;;;;;2.95;1.48;;;;;;;;;;5021633;28;20071;-60
2021/12/20 14:13:20;;;;;;;5.43;2.63;;;;;;;;;;5033727;28;20028;-62
2021/12/20 14:15:56;;;;;;;9.13;2.90;;;;;;;;;;5033763;28;20040;-60
2021/12/20 14:18:27;;;;;;;6.18;2.80;;;;;;;;;;5032243;28;20025;-59
2021/12/20 14:20:56;;;;;;;6.10;3.03;;;;;;;;;;5033667;28;20021;-59
2021/12/20 14:23:26;;;;;;;6.60;2.10;;;;;;;;;;5033574;28;20040;-63
2021/12/20 14:26:15;;;;;;;5.50;3.05;;;;;;;;;;5033585;28;20033;-59
2021/12/20 14:28:51;;;;;;;8.18;2.97;;;;;;;;;;5033236;28;20037;-62
2021/12/20 14:31:27;;;;;;;6.38;2.50;;;;;;;;;;5033147;28;20048;-59
2021/12/20 14:33:58;;;;;;;7.38;2.60;;;;;;;;;;5033258;28;20483;-60
2021/12/20 14:36:26;;;;;;;14.82;6.35;;;;;;;;;;5033140;28;20160;-60
2021/12/20 14:38:54;;;;;;;9.40;4.82;;;;;;;;;;5033092;28;20026;-60
2021/12/20 14:41:35;;;;;;;25.85;11.70;;;;;;;;;;5032917;28;20030;-60
2021/12/20 14:44:06;;;;;;;114.63;38.95;;;;;;;;;;5036847;28;20053;-66
2021/12/20 14:46:38;;;;;;;19.27;8.55;;;;;;;;;;5033422;28;20473;-62
2021/12/20 14:49:17;;;;;;;10.73;3.65;;;;;;;;;;5033197;28;20041;-62
2021/12/20 14:51:42;;;;;;;9.13;3.92;;;;;;;;;;5032667;28;20449;-60
2021/12/20 14:54:24;;;;;;;7.30;3.63;;;;;;;;;;5033004;28;20037;-63
2021/12/20 14:56:58;;;;;;;9.05;4.65;;;;;;;;;;5033231;28;20033;-61
2021/12/20 14:59:29;;;;;;;7.32;3.80;;;;;;;;;;5032041;28;20029;-60
2021/12/20 15:01:59;;;;;;;9.18;4.93;;;;;;;;;;5032403;28;20112;-60
2021/12/20 15:04:25;;;;;;;10.73;5.40;;;;;;;;;;5030404;28;20548;-63